sensor_id;sensor_type;location;lat;lon;timestamp;P1;durP1;ratioP1;P2;durP2;ratioP2
77821;SDS011;67012;53.712;10.728;2023-11-19T07:41:58;18.88;;;7.97;;
77821;SDS011;67012;53.712;10.728;2023-11-19T07:44:24;19.83;;;9.43;;
77821;SDS011;67012;53.712;10.728;2023-11-19T07:46:49;24.42;;;10.55;;
77821;SDS011;67012;53.712;10.728;2023-11-19T07:49:15;19.70;;;9.68;;
77821;SDS011;67012;53.712;10.728;2023-11-19T07:51:40;17.07;;;8.70;;
77821;SDS011;67012;53.712;10.728;2023-11-19T07:54:05;17.07;;;8.53;;
77821;SDS011;67012;53.712;10.728;2023-11-19T07:56:33;17.38;;;9.23;;
77821;SDS011;67012;53.712;10.728;2023-11-19T07:59:02;20.70;;;9.95;;
77821;SDS011;67012;53.712;10.728;2023-11-19T08:01:27;18.08;;;7.75;;
77821;SDS011;67012;53.712;10.728;2023-11-19T08:03:52;22.20;;;9.17;;
77821;SDS011;67012;53.712;10.728;2023-11-19T08:06:18;15.63;;;7.80;;
77821;SDS011;67012;53.712;10.728;2023-11-19T08:08:43;18.90;;;8.33;;
77821;SDS011;67012;53.712;10.728;2023-11-19T08:11:08;18.73;;;7.37;;
77821;SDS011;67012;53.712;10.728;2023-11-19T08:13:33;17.70;;;7.07;;
77821;SDS011;67012;53.712;10.728;2023-11-19T08:15:58;17.23;;;7.90;;
77821;SDS011;67012;53.712;10.728;2023-11-19T08:18:24;24.70;;;8.37;;
77821;SDS011;67012;53.712;10.728;2023-11-19T08:20:49;25.33;;;7.85;;
77821;SDS011;67012;53.712;10.728;2023-11-19T08:25:43;17.67;;;7.53;;
77821;SDS011;67012;53.712;10.728;2023-11-19T08:28:09;17.30;;;6.60;;
77821;SDS011;67012;53.712;10.728;2023-11-19T08:30:34;28.88;;;7.45;;
77821;SDS011;67012;53.712;10.728;2023-11-19T08:33:00;22.02;;;5.53;;
77821;SDS011;67012;53.712;10.728;2023-11-19T08:35:27;21.50;;;7.20;;
77821;SDS011;67012;53.712;10.728;2023-11-19T08:37:53;20.43;;;5.43;;
77821;SDS011;67012;53.712;10.728;2023-11-19T08:40:19;17.58;;;5.72;;
77821;SDS011;67012;53.712;10.728;2023-11-19T08:42:44;19.60;;;5.43;;
77821;SDS011;67012;53.712;10.728;2023-11-19T08:45:10;20.83;;;6.40;;
77821;SDS011;67012;53.712;10.728;2023-11-19T08:47:36;14.02;;;4.05;;
77821;SDS011;67012;53.712;10.728;2023-11-19T08:50:02;12.10;;;4.22;;
77821;SDS011;67012;53.712;10.728;2023-11-19T08:52:28;18.67;;;4.25;;
77821;SDS011;67012;53.712;10.728;2023-11-19T08:54:54;14.15;;;3.90;;
77821;SDS011;67012;53.712;10.728;2023-11-19T08:57:19;17.00;;;3.63;;
77821;SDS011;67012;53.712;10.728;2023-11-19T08:59:45;13.85;;;3.22;;
77821;SDS011;67012;53.712;10.728;2023-11-19T09:02:10;14.18;;;3.50;;
77821;SDS011;67012;53.712;10.728;2023-11-19T09:04:36;18.38;;;3.90;;
77821;SDS011;67012;53.712;10.728;2023-11-19T09:07:01;21.33;;;3.70;;
77821;SDS011;67012;53.712;10.728;2023-11-19T09:09:26;15.43;;;2.77;;
77821;SDS011;67012;53.712;10.728;2023-11-19T09:11:51;22.47;;;4.37;;
77821;SDS011;67012;53.712;10.728;2023-11-19T09:14:17;17.87;;;3.40;;
77821;SDS011;67012;53.712;10.728;2023-11-19T09:16:43;17.23;;;3.53;;
77821;SDS011;67012;53.712;10.728;2023-11-19T09:19:08;14.13;;;3.77;;
77821;SDS011;67012;53.712;10.728;2023-11-19T09:21:33;12.17;;;2.63;;
77821;SDS011;67012;53.712;10.728;2023-11-19T09:24:01;20.63;;;3.95;;
77821;SDS011;67012;53.712;10.728;2023-11-19T09:26:26;23.43;;;3.10;;
77821;SDS011;67012;53.712;10.728;2023-11-19T09:28:51;15.10;;;2.83;;
77821;SDS011;67012;53.712;10.728;2023-11-19T09:31:17;17.77;;;3.50;;
77821;SDS011;67012;53.712;10.728;2023-11-19T09:33:43;14.65;;;3.30;;
77821;SDS011;67012;53.712;10.728;2023-11-19T09:36:08;19.52;;;4.03;;
77821;SDS011;67012;53.712;10.728;2023-11-19T09:38:34;14.20;;;2.97;;
77821;SDS011;67012;53.712;10.728;2023-11-19T09:41:03;14.60;;;3.47;;
77821;SDS011;67012;53.712;10.728;2023-11-19T09:43:33;19.75;;;3.10;;
77821;SDS011;67012;53.712;10.728;2023-11-19T09:45:58;14.73;;;2.83;;
77821;SDS011;67012;53.712;10.728;2023-11-19T09:50:51;16.90;;;3.15;;
77821;SDS011;67012;53.712;10.728;2023-11-19T09:53:17;17.48;;;3.58;;
77821;SDS011;67012;53.712;10.728;2023-11-19T09:55:42;17.40;;;3.25;;
77821;SDS011;67012;53.712;10.728;2023-11-19T09:58:08;20.53;;;3.57;;
77821;SDS011;67012;53.712;10.728;2023-11-19T10:00:34;20.40;;;4.00;;
77821;SDS011;67012;53.712;10.728;2023-11-19T10:02:59;18.75;;;3.83;;
77821;SDS011;67012;53.712;10.728;2023-11-19T10:05:24;20.77;;;3.88;;
77821;SDS011;67012;53.712;10.728;2023-11-19T10:07:51;23.25;;;3.75;;
77821;SDS011;67012;53.712;10.728;2023-11-19T10:10:16;17.60;;;3.07;;
77821;SDS011;67012;53.712;10.728;2023-11-19T10:12:44;17.92;;;3.70;;
77821;SDS011;67012;53.712;10.728;2023-11-19T10:15:12;14.38;;;3.17;;
77821;SDS011;67012;53.712;10.728;2023-11-19T10:17:39;18.20;;;4.28;;
77821;SDS011;67012;53.712;10.728;2023-11-19T10:20:05;24.33;;;4.10;;
77821;SDS011;67012;53.712;10.728;2023-11-19T10:22:30;16.30;;;3.42;;
77821;SDS011;67012;53.712;10.728;2023-11-19T10:24:55;18.87;;;3.10;;
77821;SDS011;67012;53.712;10.728;2023-11-19T10:27:23;18.13;;;3.53;;
77821;SDS011;67012;53.712;10.728;2023-11-19T10:29:48;26.75;;;3.83;;
77821;SDS011;67012;53.712;10.728;2023-11-19T10:32:14;17.33;;;4.25;;
77821;SDS011;67012;53.712;10.728;2023-11-19T10:34:41;17.63;;;3.70;;
77821;SDS011;67012;53.712;10.728;2023-11-19T10:37:08;16.80;;;3.55;;
77821;SDS011;67012;53.712;10.728;2023-11-19T10:39:51;20.70;;;3.67;;
77821;SDS011;67012;53.712;10.728;2023-11-19T10:42:19;24.10;;;3.90;;
77821;SDS011;67012;53.712;10.728;2023-11-19T10:44:44;17.07;;;3.07;;
77821;SDS011;67012;53.712;10.728;2023-11-19T10:47:09;21.13;;;4.07;;
77821;SDS011;67012;53.712;10.728;2023-11-19T10:49:35;18.10;;;4.65;;
77821;SDS011;67012;53.712;10.728;2023-11-19T10:52:00;17.60;;;3.67;;
77821;SDS011;67012;53.712;10.728;2023-11-19T10:54:26;17.98;;;2.88;;
77821;SDS011;67012;53.712;10.728;2023-11-19T10:56:55;14.73;;;3.95;;
77821;SDS011;67012;53.712;10.728;2023-11-19T10:59:23;22.23;;;3.95;;
77821;SDS011;67012;53.712;10.728;2023-11-19T11:01:50;17.80;;;3.55;;
77821;SDS011;67012;53.712;10.728;2023-11-19T11:04:22;25.92;;;6.78;;
77821;SDS011;67012;53.712;10.728;2023-11-19T11:06:48;15.23;;;3.03;;
77821;SDS011;67012;53.712;10.728;2023-11-19T11:09:13;17.30;;;4.30;;
77821;SDS011;67012;53.712;10.728;2023-11-19T11:11:40;22.77;;;4.40;;
77821;SDS011;67012;53.712;10.728;2023-11-19T11:14:06;18.08;;;2.88;;
77821;SDS011;67012;53.712;10.728;2023-11-19T11:16:32;19.42;;;3.10;;
77821;SDS011;67012;53.712;10.728;2023-11-19T11:18:58;17.85;;;3.42;;
77821;SDS011;67012;53.712;10.728;2023-11-19T11:21:24;19.50;;;2.97;;
77821;SDS011;67012;53.712;10.728;2023-11-19T11:29:01;13.05;;;2.78;;
77821;SDS011;67012;53.712;10.728;2023-11-19T11:39:26;14.68;;;2.90;;
77821;SDS011;67012;53.712;10.728;2023-11-19T11:42:24;15.80;;;3.20;;
77821;SDS011;67012;53.712;10.728;2023-11-19T11:44:58;15.65;;;2.90;;
77821;SDS011;67012;53.712;10.728;2023-11-19T11:47:23;13.50;;;2.78;;
77821;SDS011;67012;53.712;10.728;2023-11-19T11:49:48;20.07;;;4.20;;
77821;SDS011;67012;53.712;10.728;2023-11-19T11:52:14;24.60;;;5.75;;
77821;SDS011;67012;53.712;10.728;2023-11-19T11:54:41;20.83;;;4.10;;
77821;SDS011;67012;53.712;10.728;2023-11-19T11:57:07;15.90;;;3.70;;
77821;SDS011;67012;53.712;10.728;2023-11-19T11:59:37;15.40;;;3.42;;
77821;SDS011;67012;53.712;10.728;2023-11-19T12:02:03;16.27;;;3.38;;
77821;SDS011;67012;53.712;10.728;2023-11-19T12:04:28;16.50;;;3.13;;
77821;SDS011;67012;53.712;10.728;2023-11-19T12:07:03;18.67;;;4.17;;
77821;SDS011;67012;53.712;10.728;2023-11-19T12:09:29;18.88;;;3.90;;
77821;SDS011;67012;53.712;10.728;2023-11-19T12:12:06;15.63;;;2.80;;
77821;SDS011;67012;53.712;10.728;2023-11-19T12:22:24;15.20;;;2.83;;
77821;SDS011;67012;53.712;10.728;2023-11-19T12:24:50;27.63;;;3.28;;
77821;SDS011;67012;53.712;10.728;2023-11-19T12:27:16;16.95;;;3.17;;
77821;SDS011;67012;53.712;10.728;2023-11-19T12:29:42;20.13;;;2.83;;
77821;SDS011;67012;53.712;10.728;2023-11-19T12:32:09;17.83;;;4.53;;
77821;SDS011;67012;53.712;10.728;2023-11-19T12:34:34;19.63;;;3.10;;
77821;SDS011;67012;53.712;10.728;2023-11-19T12:37:02;16.10;;;3.23;;
77821;SDS011;67012;53.712;10.728;2023-11-19T12:39:31;22.52;;;3.60;;
77821;SDS011;67012;53.712;10.728;2023-11-19T12:41:56;18.98;;;2.97;;
77821;SDS011;67012;53.712;10.728;2023-11-19T12:44:24;22.83;;;4.38;;
77821;SDS011;67012;53.712;10.728;2023-11-19T12:47:05;15.90;;;2.97;;
77821;SDS011;67012;53.712;10.728;2023-11-19T12:52:01;13.07;;;3.60;;
77821;SDS011;67012;53.712;10.728;2023-11-19T12:54:35;13.93;;;5.13;;
77821;SDS011;67012;53.712;10.728;2023-11-19T12:57:01;16.73;;;2.85;;
77821;SDS011;67012;53.712;10.728;2023-11-19T12:59:27;14.13;;;4.80;;
77821;SDS011;67012;53.712;10.728;2023-11-19T13:01:58;18.60;;;4.85;;
77821;SDS011;67012;53.712;10.728;2023-11-19T13:04:27;23.25;;;4.80;;
77821;SDS011;67012;53.712;10.728;2023-11-19T13:06:53;23.33;;;5.18;;
77821;SDS011;67012;53.712;10.728;2023-11-19T13:09:25;19.83;;;3.47;;
77821;SDS011;67012;53.712;10.728;2023-11-19T13:11:50;19.48;;;3.35;;
77821;SDS011;67012;53.712;10.728;2023-11-19T13:14:17;20.05;;;3.35;;
77821;SDS011;67012;53.712;10.728;2023-11-19T13:16:42;24.73;;;4.63;;
77821;SDS011;67012;53.712;10.728;2023-11-19T13:19:08;18.52;;;3.45;;
77821;SDS011;67012;53.712;10.728;2023-11-19T13:21:34;23.77;;;5.05;;
77821;SDS011;67012;53.712;10.728;2023-11-19T13:23:59;21.10;;;4.03;;
77821;SDS011;67012;53.712;10.728;2023-11-19T13:26:24;24.83;;;8.33;;
77821;SDS011;67012;53.712;10.728;2023-11-19T13:28:49;24.87;;;3.77;;
77821;SDS011;67012;53.712;10.728;2023-11-19T13:31:15;21.57;;;3.87;;
77821;SDS011;67012;53.712;10.728;2023-11-19T13:33:40;19.92;;;4.03;;
77821;SDS011;67012;53.712;10.728;2023-11-19T13:36:06;19.13;;;3.55;;
77821;SDS011;67012;53.712;10.728;2023-11-19T13:38:32;22.33;;;3.35;;
77821;SDS011;67012;53.712;10.728;2023-11-19T13:40:58;17.15;;;3.33;;
77821;SDS011;67012;53.712;10.728;2023-11-19T13:43:23;15.65;;;2.85;;
77821;SDS011;67012;53.712;10.728;2023-11-19T13:45:49;22.30;;;5.13;;
77821;SDS011;67012;53.712;10.728;2023-11-19T13:48:14;24.20;;;4.37;;
77821;SDS011;67012;53.712;10.728;2023-11-19T13:50:39;18.87;;;3.90;;
77821;SDS011;67012;53.712;10.728;2023-11-19T13:53:04;19.90;;;3.47;;
77821;SDS011;67012;53.712;10.728;2023-11-19T13:55:30;14.57;;;2.67;;
77821;SDS011;67012;53.712;10.728;2023-11-19T13:57:55;17.38;;;3.85;;
77821;SDS011;67012;53.712;10.728;2023-11-19T14:00:20;27.45;;;3.15;;
77821;SDS011;67012;53.712;10.728;2023-11-19T14:02:48;15.63;;;3.28;;
77821;SDS011;67012;53.712;10.728;2023-11-19T14:05:13;16.85;;;3.33;;
77821;SDS011;67012;53.712;10.728;2023-11-19T14:07:39;17.05;;;3.72;;
77821;SDS011;67012;53.712;10.728;2023-11-19T14:10:05;23.02;;;3.50;;
77821;SDS011;67012;53.712;10.728;2023-11-19T14:12:31;19.48;;;3.88;;
77821;SDS011;67012;53.712;10.728;2023-11-19T14:14:57;19.63;;;3.42;;
77821;SDS011;67012;53.712;10.728;2023-11-19T14:17:22;22.43;;;4.17;;
77821;SDS011;67012;53.712;10.728;2023-11-19T14:19:47;14.80;;;4.93;;
77821;SDS011;67012;53.712;10.728;2023-11-19T14:22:12;16.87;;;2.73;;
77821;SDS011;67012;53.712;10.728;2023-11-19T14:24:38;23.07;;;4.30;;
77821;SDS011;67012;53.712;10.728;2023-11-19T14:27:04;24.30;;;4.75;;
77821;SDS011;67012;53.712;10.728;2023-11-19T14:29:30;16.83;;;2.63;;
77821;SDS011;67012;53.712;10.728;2023-11-19T14:31:55;14.52;;;2.83;;
77821;SDS011;67012;53.712;10.728;2023-11-19T14:34:21;19.00;;;3.10;;
77821;SDS011;67012;53.712;10.728;2023-11-19T14:36:46;19.48;;;3.17;;
77821;SDS011;67012;53.712;10.728;2023-11-19T14:39:12;21.63;;;4.80;;
77821;SDS011;67012;53.712;10.728;2023-11-19T14:41:38;17.48;;;2.63;;
77821;SDS011;67012;53.712;10.728;2023-11-19T14:44:03;21.45;;;3.20;;
77821;SDS011;67012;53.712;10.728;2023-11-19T14:46:29;16.43;;;3.53;;
77821;SDS011;67012;53.712;10.728;2023-11-19T14:48:54;21.43;;;2.97;;
77821;SDS011;67012;53.712;10.728;2023-11-19T14:51:19;17.55;;;3.38;;
77821;SDS011;67012;53.712;10.728;2023-11-19T14:53:45;23.83;;;3.45;;
77821;SDS011;67012;53.712;10.728;2023-11-19T14:56:10;14.30;;;2.30;;
77821;SDS011;67012;53.712;10.728;2023-11-19T14:58:37;13.65;;;2.40;;
77821;SDS011;67012;53.712;10.728;2023-11-19T15:01:02;15.87;;;3.03;;
77821;SDS011;67012;53.712;10.728;2023-11-19T15:03:29;14.82;;;2.92;;
77821;SDS011;67012;53.712;10.728;2023-11-19T15:05:54;18.73;;;5.23;;
77821;SDS011;67012;53.712;10.728;2023-11-19T15:08:19;17.77;;;3.20;;
77821;SDS011;67012;53.712;10.728;2023-11-19T15:10:45;19.77;;;3.00;;
77821;SDS011;67012;53.712;10.728;2023-11-19T15:13:11;16.85;;;3.00;;
77821;SDS011;67012;53.712;10.728;2023-11-19T15:15:37;14.43;;;3.03;;
77821;SDS011;67012;53.712;10.728;2023-11-19T15:18:03;21.90;;;2.97;;
77821;SDS011;67012;53.712;10.728;2023-11-19T15:20:29;14.73;;;3.17;;
77821;SDS011;67012;53.712;10.728;2023-11-19T15:22:55;13.52;;;2.53;;
77821;SDS011;67012;53.712;10.728;2023-11-19T15:25:20;17.40;;;2.60;;
77821;SDS011;67012;53.712;10.728;2023-11-19T15:27:46;16.57;;;2.43;;
77821;SDS011;67012;53.712;10.728;2023-11-19T15:30:11;14.97;;;2.20;;
77821;SDS011;67012;53.712;10.728;2023-11-19T15:32:37;15.00;;;2.35;;
77821;SDS011;67012;53.712;10.728;2023-11-19T15:35:02;12.35;;;2.15;;
77821;SDS011;67012;53.712;10.728;2023-11-19T15:37:28;19.70;;;2.65;;
77821;SDS011;67012;53.712;10.728;2023-11-19T15:39:54;17.40;;;3.03;;
77821;SDS011;67012;53.712;10.728;2023-11-19T15:42:19;11.68;;;2.40;;
77821;SDS011;67012;53.712;10.728;2023-11-19T15:44:44;12.30;;;2.40;;
77821;SDS011;67012;53.712;10.728;2023-11-19T15:47:10;14.05;;;2.33;;
77821;SDS011;67012;53.712;10.728;2023-11-19T15:49:35;12.93;;;2.50;;
77821;SDS011;67012;53.712;10.728;2023-11-19T15:52:02;13.20;;;2.05;;
77821;SDS011;67012;53.712;10.728;2023-11-19T15:54:27;12.68;;;2.05;;
77821;SDS011;67012;53.712;10.728;2023-11-19T15:56:52;15.97;;;2.57;;
77821;SDS011;67012;53.712;10.728;2023-11-19T15:59:17;7.75;;;1.77;;
77821;SDS011;67012;53.712;10.728;2023-11-19T16:01:43;10.53;;;1.80;;
77821;SDS011;67012;53.712;10.728;2023-11-19T16:04:08;14.47;;;3.63;;
77821;SDS011;67012;53.712;10.728;2023-11-19T16:06:34;12.05;;;1.98;;
77821;SDS011;67012;53.712;10.728;2023-11-19T16:08:59;11.82;;;2.35;;
77821;SDS011;67012;53.712;10.728;2023-11-19T16:11:25;9.70;;;2.10;;
77821;SDS011;67012;53.712;10.728;2023-11-19T16:13:50;8.47;;;1.93;;
77821;SDS011;67012;53.712;10.728;2023-11-19T16:16:15;4.07;;;1.37;;
77821;SDS011;67012;53.712;10.728;2023-11-19T16:18:40;12.80;;;1.57;;
77821;SDS011;67012;53.712;10.728;2023-11-19T16:21:06;8.07;;;2.00;;
77821;SDS011;67012;53.712;10.728;2023-11-19T16:23:31;8.82;;;1.88;;
77821;SDS011;67012;53.712;10.728;2023-11-19T16:25:57;6.47;;;1.40;;
77821;SDS011;67012;53.712;10.728;2023-11-19T16:28:22;7.37;;;1.30;;
77821;SDS011;67012;53.712;10.728;2023-11-19T16:30:49;5.32;;;1.30;;
77821;SDS011;67012;53.712;10.728;2023-11-19T16:33:14;6.10;;;1.10;;
77821;SDS011;67012;53.712;10.728;2023-11-19T16:35:39;2.53;;;0.77;;
77821;SDS011;67012;53.712;10.728;2023-11-19T16:38:04;7.10;;;1.63;;
77821;SDS011;67012;53.712;10.728;2023-11-19T16:40:31;6.45;;;1.02;;
77821;SDS011;67012;53.712;10.728;2023-11-19T16:42:56;4.13;;;0.90;;
77821;SDS011;67012;53.712;10.728;2023-11-19T16:45:22;4.85;;;0.90;;
77821;SDS011;67012;53.712;10.728;2023-11-19T16:47:48;6.90;;;1.40;;
77821;SDS011;67012;53.712;10.728;2023-11-19T16:50:13;4.97;;;1.20;;
77821;SDS011;67012;53.712;10.728;2023-11-19T16:52:41;8.95;;;0.80;;
77821;SDS011;67012;53.712;10.728;2023-11-19T16:55:06;5.97;;;1.50;;
77821;SDS011;67012;53.712;10.728;2023-11-19T16:57:37;6.22;;;1.33;;
77821;SDS011;67012;53.712;10.728;2023-11-19T17:00:03;9.00;;;1.60;;
77821;SDS011;67012;53.712;10.728;2023-11-19T17:02:29;8.40;;;1.00;;
77821;SDS011;67012;53.712;10.728;2023-11-19T17:04:55;6.63;;;1.20;;
77821;SDS011;67012;53.712;10.728;2023-11-19T17:07:20;7.70;;;1.50;;
77821;SDS011;67012;53.712;10.728;2023-11-19T17:09:45;6.97;;;2.03;;
77821;SDS011;67012;53.712;10.728;2023-11-19T17:12:11;7.50;;;2.08;;
77821;SDS011;67012;53.712;10.728;2023-11-19T17:14:38;4.88;;;1.73;;
77821;SDS011;67012;53.712;10.728;2023-11-19T17:17:03;8.00;;;1.80;;
77821;SDS011;67012;53.712;10.728;2023-11-19T17:19:28;4.28;;;1.65;;
77821;SDS011;67012;53.712;10.728;2023-11-19T17:21:54;5.50;;;1.57;;
77821;SDS011;67012;53.712;10.728;2023-11-19T17:24:19;7.15;;;2.33;;
77821;SDS011;67012;53.712;10.728;2023-11-19T17:26:44;11.53;;;2.27;;
77821;SDS011;67012;53.712;10.728;2023-11-19T17:29:10;9.05;;;2.30;;
77821;SDS011;67012;53.712;10.728;2023-11-19T17:31:35;12.40;;;2.47;;
